sensor_id;sensor_type;location;lat;lon;timestamp;P1;durP1;ratioP1;P2;durP2;ratioP2
66927;SDS011;59882;45.624;11.698;2023-03-31T00:01:57;24.58;;;14.32;;
66927;SDS011;59882;45.624;11.698;2023-03-31T00:04:23;21.20;;;15.02;;
66927;SDS011;59882;45.624;11.698;2023-03-31T00:06:50;21.17;;;14.53;;
66927;SDS011;59882;45.624;11.698;2023-03-31T00:09:18;25.83;;;14.65;;
66927;SDS011;59882;45.624;11.698;2023-03-31T00:11:46;22.60;;;15.25;;
66927;SDS011;59882;45.624;11.698;2023-03-31T00:14:13;20.73;;;14.65;;
66927;SDS011;59882;45.624;11.698;2023-03-31T00:16:41;22.33;;;15.48;;
66927;SDS011;59882;45.624;11.698;2023-03-31T00:19:08;19.00;;;14.33;;
66927;SDS011;59882;45.624;11.698;2023-03-31T00:21:42;23.00;;;15.85;;
66927;SDS011;59882;45.624;11.698;2023-03-31T00:24:09;24.27;;;15.90;;
66927;SDS011;59882;45.624;11.698;2023-03-31T00:26:36;23.10;;;15.60;;
66927;SDS011;59882;45.624;11.698;2023-03-31T00:29:03;21.92;;;16.10;;
66927;SDS011;59882;45.624;11.698;2023-03-31T00:31:30;23.60;;;15.43;;
66927;SDS011;59882;45.624;11.698;2023-03-31T00:33:56;23.50;;;15.55;;
66927;SDS011;59882;45.624;11.698;2023-03-31T00:36:22;28.60;;;15.93;;
66927;SDS011;59882;45.624;11.698;2023-03-31T00:38:56;25.65;;;15.07;;
66927;SDS011;59882;45.624;11.698;2023-03-31T00:41:28;27.27;;;16.73;;
66927;SDS011;59882;45.624;11.698;2023-03-31T00:46:55;23.88;;;15.50;;
66927;SDS011;59882;45.624;11.698;2023-03-31T00:49:29;24.13;;;16.65;;
66927;SDS011;59882;45.624;11.698;2023-03-31T00:52:03;27.00;;;16.48;;
66927;SDS011;59882;45.624;11.698;2023-03-31T00:54:30;24.40;;;16.63;;
66927;SDS011;59882;45.624;11.698;2023-03-31T00:56:57;28.40;;;17.05;;
66927;SDS011;59882;45.624;11.698;2023-03-31T00:59:27;24.35;;;16.77;;
66927;SDS011;59882;45.624;11.698;2023-03-31T01:01:56;24.50;;;16.15;;
66927;SDS011;59882;45.624;11.698;2023-03-31T01:04:26;29.73;;;17.15;;
66927;SDS011;59882;45.624;11.698;2023-03-31T01:07:02;28.93;;;17.37;;
66927;SDS011;59882;45.624;11.698;2023-03-31T01:09:33;26.42;;;16.08;;
66927;SDS011;59882;45.624;11.698;2023-03-31T01:12:02;32.65;;;17.90;;
66927;SDS011;59882;45.624;11.698;2023-03-31T01:14:31;25.02;;;17.88;;
66927;SDS011;59882;45.624;11.698;2023-03-31T01:16:57;26.55;;;17.88;;
66927;SDS011;59882;45.624;11.698;2023-03-31T01:19:48;29.77;;;17.63;;
66927;SDS011;59882;45.624;11.698;2023-03-31T01:50:30;27.83;;;17.85;;
66927;SDS011;59882;45.624;11.698;2023-03-31T01:53:11;27.65;;;18.67;;
66927;SDS011;59882;45.624;11.698;2023-03-31T01:55:52;25.33;;;17.50;;
66927;SDS011;59882;45.624;11.698;2023-03-31T01:58:31;27.52;;;18.23;;
66927;SDS011;59882;45.624;11.698;2023-03-31T02:01:09;25.53;;;18.23;;
66927;SDS011;59882;45.624;11.698;2023-03-31T02:04:26;27.67;;;18.90;;
66927;SDS011;59882;45.624;11.698;2023-03-31T02:06:47;28.23;;;19.17;;
66927;SDS011;59882;45.624;11.698;2023-03-31T02:09:21;27.40;;;19.83;;
66927;SDS011;59882;45.624;11.698;2023-03-31T02:11:49;31.60;;;20.45;;
66927;SDS011;59882;45.624;11.698;2023-03-31T02:14:21;32.17;;;19.27;;
66927;SDS011;59882;45.624;11.698;2023-03-31T02:16:50;29.40;;;17.83;;
66927;SDS011;59882;45.624;11.698;2023-03-31T02:19:22;35.55;;;19.92;;
66927;SDS011;59882;45.624;11.698;2023-03-31T02:21:51;27.27;;;18.75;;
66927;SDS011;59882;45.624;11.698;2023-03-31T02:24:19;27.05;;;18.08;;
66927;SDS011;59882;45.624;11.698;2023-03-31T02:29:25;26.98;;;19.30;;
66927;SDS011;59882;45.624;11.698;2023-03-31T02:31:55;28.25;;;19.25;;
66927;SDS011;59882;45.624;11.698;2023-03-31T02:34:27;25.83;;;18.35;;
66927;SDS011;59882;45.624;11.698;2023-03-31T02:36:53;25.53;;;18.80;;
66927;SDS011;59882;45.624;11.698;2023-03-31T02:39:27;32.25;;;20.75;;
66927;SDS011;59882;45.624;11.698;2023-03-31T02:41:58;30.50;;;20.70;;
66927;SDS011;59882;45.624;11.698;2023-03-31T02:44:30;30.00;;;21.20;;
66927;SDS011;59882;45.624;11.698;2023-03-31T02:47:03;32.67;;;20.47;;
66927;SDS011;59882;45.624;11.698;2023-03-31T02:49:32;28.67;;;20.73;;
66927;SDS011;59882;45.624;11.698;2023-03-31T02:57:52;28.40;;;19.60;;
66927;SDS011;59882;45.624;11.698;2023-03-31T03:14:34;33.60;;;20.37;;
66927;SDS011;59882;45.624;11.698;2023-03-31T03:17:26;31.50;;;21.52;;
66927;SDS011;59882;45.624;11.698;2023-03-31T03:19:58;28.80;;;20.88;;
66927;SDS011;59882;45.624;11.698;2023-03-31T03:22:25;29.65;;;21.38;;
66927;SDS011;59882;45.624;11.698;2023-03-31T03:24:52;34.70;;;21.60;;
66927;SDS011;59882;45.624;11.698;2023-03-31T03:27:18;33.42;;;22.45;;
66927;SDS011;59882;45.624;11.698;2023-03-31T03:29:46;33.80;;;22.52;;
66927;SDS011;59882;45.624;11.698;2023-03-31T03:32:12;28.50;;;21.47;;
66927;SDS011;59882;45.624;11.698;2023-03-31T03:34:38;28.37;;;21.23;;
66927;SDS011;59882;45.624;11.698;2023-03-31T03:37:03;32.38;;;22.50;;
66927;SDS011;59882;45.624;11.698;2023-03-31T03:39:29;27.80;;;21.07;;
66927;SDS011;59882;45.624;11.698;2023-03-31T03:41:55;31.92;;;22.42;;
66927;SDS011;59882;45.624;11.698;2023-03-31T03:44:21;30.03;;;21.33;;
66927;SDS011;59882;45.624;11.698;2023-03-31T03:46:46;30.02;;;21.02;;
66927;SDS011;59882;45.624;11.698;2023-03-31T03:49:12;33.27;;;23.13;;
66927;SDS011;59882;45.624;11.698;2023-03-31T03:51:38;38.72;;;23.02;;
66927;SDS011;59882;45.624;11.698;2023-03-31T03:54:03;34.10;;;22.13;;
66927;SDS011;59882;45.624;11.698;2023-03-31T03:56:29;34.63;;;22.77;;
66927;SDS011;59882;45.624;11.698;2023-03-31T03:58:55;31.30;;;21.30;;
66927;SDS011;59882;45.624;11.698;2023-03-31T04:01:21;31.60;;;21.35;;
66927;SDS011;59882;45.624;11.698;2023-03-31T04:03:47;33.55;;;22.83;;
66927;SDS011;59882;45.624;11.698;2023-03-31T04:06:13;32.97;;;22.63;;
66927;SDS011;59882;45.624;11.698;2023-03-31T04:08:39;35.85;;;24.42;;
66927;SDS011;59882;45.624;11.698;2023-03-31T04:11:10;43.37;;;24.40;;
66927;SDS011;59882;45.624;11.698;2023-03-31T04:13:38;36.97;;;24.33;;
66927;SDS011;59882;45.624;11.698;2023-03-31T04:16:04;37.45;;;24.60;;
66927;SDS011;59882;45.624;11.698;2023-03-31T04:18:30;33.50;;;23.33;;
66927;SDS011;59882;45.624;11.698;2023-03-31T04:20:55;36.27;;;22.43;;
66927;SDS011;59882;45.624;11.698;2023-03-31T04:23:34;39.47;;;23.58;;
66927;SDS011;59882;45.624;11.698;2023-03-31T04:26:09;34.42;;;23.25;;
66927;SDS011;59882;45.624;11.698;2023-03-31T04:28:36;36.00;;;22.97;;
66927;SDS011;59882;45.624;11.698;2023-03-31T04:31:03;34.05;;;22.73;;
66927;SDS011;59882;45.624;11.698;2023-03-31T04:33:30;35.83;;;23.55;;
66927;SDS011;59882;45.624;11.698;2023-03-31T04:35:58;36.72;;;24.50;;
66927;SDS011;59882;45.624;11.698;2023-03-31T04:38:31;37.97;;;23.50;;
66927;SDS011;59882;45.624;11.698;2023-03-31T04:40:57;33.97;;;23.17;;
66927;SDS011;59882;45.624;11.698;2023-03-31T04:43:23;37.28;;;24.95;;
66927;SDS011;59882;45.624;11.698;2023-03-31T04:45:49;33.63;;;23.38;;
66927;SDS011;59882;45.624;11.698;2023-03-31T04:48:15;39.70;;;24.38;;
66927;SDS011;59882;45.624;11.698;2023-03-31T04:50:41;34.67;;;24.03;;
66927;SDS011;59882;45.624;11.698;2023-03-31T04:53:07;34.20;;;23.33;;
66927;SDS011;59882;45.624;11.698;2023-03-31T04:55:33;35.05;;;24.42;;
66927;SDS011;59882;45.624;11.698;2023-03-31T04:57:59;37.43;;;25.07;;
66927;SDS011;59882;45.624;11.698;2023-03-31T05:00:25;37.72;;;25.27;;
66927;SDS011;59882;45.624;11.698;2023-03-31T05:02:50;36.93;;;23.93;;
66927;SDS011;59882;45.624;11.698;2023-03-31T05:05:16;36.45;;;25.00;;
66927;SDS011;59882;45.624;11.698;2023-03-31T05:07:42;37.70;;;24.95;;
66927;SDS011;59882;45.624;11.698;2023-03-31T05:10:08;38.67;;;25.45;;
66927;SDS011;59882;45.624;11.698;2023-03-31T05:12:37;39.00;;;25.13;;
66927;SDS011;59882;45.624;11.698;2023-03-31T05:15:04;40.70;;;26.00;;
66927;SDS011;59882;45.624;11.698;2023-03-31T05:17:30;38.72;;;25.63;;
66927;SDS011;59882;45.624;11.698;2023-03-31T05:19:57;35.75;;;25.13;;
66927;SDS011;59882;45.624;11.698;2023-03-31T05:22:23;43.67;;;27.10;;
66927;SDS011;59882;45.624;11.698;2023-03-31T05:24:49;40.23;;;26.33;;
66927;SDS011;59882;45.624;11.698;2023-03-31T05:27:14;36.35;;;24.90;;
66927;SDS011;59882;45.624;11.698;2023-03-31T05:29:40;39.63;;;26.92;;
66927;SDS011;59882;45.624;11.698;2023-03-31T05:32:06;38.80;;;25.83;;
66927;SDS011;59882;45.624;11.698;2023-03-31T05:34:32;36.97;;;24.53;;
66927;SDS011;59882;45.624;11.698;2023-03-31T05:36:57;40.47;;;26.52;;
66927;SDS011;59882;45.624;11.698;2023-03-31T05:39:23;42.40;;;26.77;;
66927;SDS011;59882;45.624;11.698;2023-03-31T05:41:49;41.45;;;26.80;;
66927;SDS011;59882;45.624;11.698;2023-03-31T05:44:14;49.50;;;34.23;;
66927;SDS011;59882;45.624;11.698;2023-03-31T05:46:40;48.25;;;31.42;;
66927;SDS011;59882;45.624;11.698;2023-03-31T05:49:06;38.78;;;30.63;;
66927;SDS011;59882;45.624;11.698;2023-03-31T05:51:32;43.03;;;29.23;;
66927;SDS011;59882;45.624;11.698;2023-03-31T05:53:58;38.95;;;27.52;;
66927;SDS011;59882;45.624;11.698;2023-03-31T05:56:24;40.20;;;27.77;;
66927;SDS011;59882;45.624;11.698;2023-03-31T05:58:51;44.77;;;30.97;;
66927;SDS011;59882;45.624;11.698;2023-03-31T06:01:17;42.22;;;29.05;;
66927;SDS011;59882;45.624;11.698;2023-03-31T06:03:44;39.78;;;29.45;;
66927;SDS011;59882;45.624;11.698;2023-03-31T06:06:11;42.63;;;27.40;;
66927;SDS011;59882;45.624;11.698;2023-03-31T06:08:41;42.38;;;29.38;;
66927;SDS011;59882;45.624;11.698;2023-03-31T06:11:09;46.00;;;30.73;;
66927;SDS011;59882;45.624;11.698;2023-03-31T06:13:38;47.25;;;29.27;;
66927;SDS011;59882;45.624;11.698;2023-03-31T06:16:04;49.58;;;30.92;;
66927;SDS011;59882;45.624;11.698;2023-03-31T06:18:31;44.80;;;31.13;;
66927;SDS011;59882;45.624;11.698;2023-03-31T06:20:58;45.63;;;30.73;;
66927;SDS011;59882;45.624;11.698;2023-03-31T06:23:25;44.30;;;29.60;;
66927;SDS011;59882;45.624;11.698;2023-03-31T06:25:51;49.15;;;28.35;;
66927;SDS011;59882;45.624;11.698;2023-03-31T06:28:18;45.88;;;30.10;;
66927;SDS011;59882;45.624;11.698;2023-03-31T06:30:44;46.40;;;29.35;;
66927;SDS011;59882;45.624;11.698;2023-03-31T06:33:10;39.53;;;29.50;;
66927;SDS011;59882;45.624;11.698;2023-03-31T06:35:36;42.25;;;31.30;;
66927;SDS011;59882;45.624;11.698;2023-03-31T06:38:03;41.00;;;30.65;;
66927;SDS011;59882;45.624;11.698;2023-03-31T06:40:28;41.60;;;30.33;;
66927;SDS011;59882;45.624;11.698;2023-03-31T06:42:54;39.83;;;29.67;;
66927;SDS011;59882;45.624;11.698;2023-03-31T06:45:20;39.57;;;29.17;;
66927;SDS011;59882;45.624;11.698;2023-03-31T06:47:45;47.38;;;30.92;;
66927;SDS011;59882;45.624;11.698;2023-03-31T06:50:11;43.43;;;29.80;;
66927;SDS011;59882;45.624;11.698;2023-03-31T06:52:37;41.88;;;30.45;;
66927;SDS011;59882;45.624;11.698;2023-03-31T06:55:04;39.80;;;29.50;;
66927;SDS011;59882;45.624;11.698;2023-03-31T06:57:31;45.45;;;29.40;;
66927;SDS011;59882;45.624;11.698;2023-03-31T06:59:58;46.10;;;28.90;;
66927;SDS011;59882;45.624;11.698;2023-03-31T07:02:23;40.15;;;29.13;;
66927;SDS011;59882;45.624;11.698;2023-03-31T07:04:49;44.33;;;27.83;;
66927;SDS011;59882;45.624;11.698;2023-03-31T07:07:15;40.30;;;27.10;;
66927;SDS011;59882;45.624;11.698;2023-03-31T07:09:40;49.40;;;28.20;;
66927;SDS011;59882;45.624;11.698;2023-03-31T07:12:06;36.58;;;26.17;;
66927;SDS011;59882;45.624;11.698;2023-03-31T07:14:32;36.17;;;26.97;;
66927;SDS011;59882;45.624;11.698;2023-03-31T07:16:58;43.97;;;27.13;;
66927;SDS011;59882;45.624;11.698;2023-03-31T07:19:24;44.28;;;27.73;;
66927;SDS011;59882;45.624;11.698;2023-03-31T07:21:49;44.57;;;29.43;;
66927;SDS011;59882;45.624;11.698;2023-03-31T07:24:15;44.57;;;30.37;;
66927;SDS011;59882;45.624;11.698;2023-03-31T07:26:41;39.00;;;28.33;;
66927;SDS011;59882;45.624;11.698;2023-03-31T07:29:07;43.33;;;26.70;;
66927;SDS011;59882;45.624;11.698;2023-03-31T07:31:32;43.77;;;27.63;;
66927;SDS011;59882;45.624;11.698;2023-03-31T07:33:59;39.38;;;26.92;;
66927;SDS011;59882;45.624;11.698;2023-03-31T07:36:26;44.95;;;28.77;;
66927;SDS011;59882;45.624;11.698;2023-03-31T07:38:52;38.33;;;26.13;;
66927;SDS011;59882;45.624;11.698;2023-03-31T07:41:19;42.78;;;27.33;;
66927;SDS011;59882;45.624;11.698;2023-03-31T07:43:46;42.25;;;28.73;;
66927;SDS011;59882;45.624;11.698;2023-03-31T07:46:22;38.45;;;28.42;;
66927;SDS011;59882;45.624;11.698;2023-03-31T07:48:50;44.43;;;31.63;;
66927;SDS011;59882;45.624;11.698;2023-03-31T07:51:18;52.80;;;32.45;;
66927;SDS011;59882;45.624;11.698;2023-03-31T07:53:45;46.33;;;34.10;;
66927;SDS011;59882;45.624;11.698;2023-03-31T07:56:13;47.17;;;34.10;;
66927;SDS011;59882;45.624;11.698;2023-03-31T07:58:41;46.03;;;31.70;;
66927;SDS011;59882;45.624;11.698;2023-03-31T08:01:07;42.93;;;30.17;;
66927;SDS011;59882;45.624;11.698;2023-03-31T08:03:32;45.00;;;29.67;;
66927;SDS011;59882;45.624;11.698;2023-03-31T08:05:58;49.47;;;30.60;;
66927;SDS011;59882;45.624;11.698;2023-03-31T08:08:24;42.17;;;30.15;;
66927;SDS011;59882;45.624;11.698;2023-03-31T08:10:50;46.87;;;30.67;;
66927;SDS011;59882;45.624;11.698;2023-03-31T08:13:16;43.67;;;30.90;;
66927;SDS011;59882;45.624;11.698;2023-03-31T08:15:42;45.25;;;30.83;;
66927;SDS011;59882;45.624;11.698;2023-03-31T08:18:07;44.57;;;31.30;;
66927;SDS011;59882;45.624;11.698;2023-03-31T08:20:33;43.33;;;30.27;;
66927;SDS011;59882;45.624;11.698;2023-03-31T08:22:58;44.67;;;33.23;;
66927;SDS011;59882;45.624;11.698;2023-03-31T08:25:24;46.40;;;31.43;;
66927;SDS011;59882;45.624;11.698;2023-03-31T08:27:50;52.72;;;35.83;;
66927;SDS011;59882;45.624;11.698;2023-03-31T08:30:16;67.47;;;43.20;;
66927;SDS011;59882;45.624;11.698;2023-03-31T08:32:43;69.78;;;45.65;;
66927;SDS011;59882;45.624;11.698;2023-03-31T08:35:09;50.58;;;35.58;;
66927;SDS011;59882;45.624;11.698;2023-03-31T08:37:36;48.08;;;31.67;;
66927;SDS011;59882;45.624;11.698;2023-03-31T08:40:02;44.50;;;32.20;;
66927;SDS011;59882;45.624;11.698;2023-03-31T08:47:59;50.97;;;32.92;;
66927;SDS011;59882;45.624;11.698;2023-03-31T08:50:35;46.70;;;31.77;;
66927;SDS011;59882;45.624;11.698;2023-03-31T08:53:08;44.60;;;32.20;;
66927;SDS011;59882;45.624;11.698;2023-03-31T08:55:45;42.10;;;30.13;;
66927;SDS011;59882;45.624;11.698;2023-03-31T08:58:19;47.00;;;31.20;;
66927;SDS011;59882;45.624;11.698;2023-03-31T09:04:03;42.25;;;29.83;;
66927;SDS011;59882;45.624;11.698;2023-03-31T09:12:10;43.25;;;30.13;;
66927;SDS011;59882;45.624;11.698;2023-03-31T09:15:07;46.25;;;30.77;;
66927;SDS011;59882;45.624;11.698;2023-03-31T09:17:44;41.90;;;30.00;;
66927;SDS011;59882;45.624;11.698;2023-03-31T09:20:22;46.13;;;32.47;;
66927;SDS011;59882;45.624;11.698;2023-03-31T09:23:16;44.88;;;30.88;;
66927;SDS011;59882;45.624;11.698;2023-03-31T09:25:46;47.67;;;32.40;;
66927;SDS011;59882;45.624;11.698;2023-03-31T09:28:28;45.75;;;31.52;;
66927;SDS011;59882;45.624;11.698;2023-03-31T09:30:58;50.17;;;32.60;;
66927;SDS011;59882;45.624;11.698;2023-03-31T09:33:28;51.20;;;31.37;;
66927;SDS011;59882;45.624;11.698;2023-03-31T09:35:58;42.88;;;29.80;;
66927;SDS011;59882;45.624;11.698;2023-03-31T09:38:25;37.40;;;28.35;;
66927;SDS011;59882;45.624;11.698;2023-03-31T09:40:56;43.38;;;29.80;;
66927;SDS011;59882;45.624;11.698;2023-03-31T09:43:24;40.83;;;28.77;;
66927;SDS011;59882;45.624;11.698;2023-03-31T09:45:51;45.00;;;28.37;;
66927;SDS011;59882;45.624;11.698;2023-03-31T09:48:19;42.30;;;28.20;;
66927;SDS011;59882;45.624;11.698;2023-03-31T09:51:01;44.22;;;28.90;;
66927;SDS011;59882;45.624;11.698;2023-03-31T09:56:31;39.30;;;26.05;;
66927;SDS011;59882;45.624;11.698;2023-03-31T09:59:00;37.67;;;27.80;;
66927;SDS011;59882;45.624;11.698;2023-03-31T10:01:27;40.05;;;27.10;;
66927;SDS011;59882;45.624;11.698;2023-03-31T10:03:54;44.25;;;30.02;;
66927;SDS011;59882;45.624;11.698;2023-03-31T10:06:20;44.65;;;30.33;;
66927;SDS011;59882;45.624;11.698;2023-03-31T10:08:49;46.70;;;30.73;;
66927;SDS011;59882;45.624;11.698;2023-03-31T10:11:19;43.10;;;30.90;;
66927;SDS011;59882;45.624;11.698;2023-03-31T10:13:46;49.80;;;31.67;;
66927;SDS011;59882;45.624;11.698;2023-03-31T10:16:14;45.38;;;29.92;;
66927;SDS011;59882;45.624;11.698;2023-03-31T10:18:47;45.30;;;29.83;;
66927;SDS011;59882;45.624;11.698;2023-03-31T10:21:24;38.25;;;28.08;;
66927;SDS011;59882;45.624;11.698;2023-03-31T10:23:51;41.43;;;29.50;;
66927;SDS011;59882;45.624;11.698;2023-03-31T10:26:36;43.03;;;28.02;;
66927;SDS011;59882;45.624;11.698;2023-03-31T10:29:02;40.50;;;28.17;;
66927;SDS011;59882;45.624;11.698;2023-03-31T10:31:36;39.25;;;27.98;;
66927;SDS011;59882;45.624;11.698;2023-03-31T10:34:06;38.92;;;28.17;;
66927;SDS011;59882;45.624;11.698;2023-03-31T10:36:43;39.67;;;28.73;;
66927;SDS011;59882;45.624;11.698;2023-03-31T10:39:11;41.60;;;28.08;;
66927;SDS011;59882;45.624;11.698;2023-03-31T10:41:42;40.10;;;29.88;;
66927;SDS011;59882;45.624;11.698;2023-03-31T10:49:40;43.23;;;29.43;;
66927;SDS011;59882;45.624;11.698;2023-03-31T10:52:14;40.85;;;28.85;;
66927;SDS011;59882;45.624;11.698;2023-03-31T10:54:46;40.92;;;28.77;;
66927;SDS011;59882;45.624;11.698;2023-03-31T10:57:17;39.80;;;28.20;;
66927;SDS011;59882;45.624;11.698;2023-03-31T11:00:11;40.67;;;28.83;;
66927;SDS011;59882;45.624;11.698;2023-03-31T11:08:19;43.63;;;27.52;;
66927;SDS011;59882;45.624;11.698;2023-03-31T11:17:13;42.30;;;27.57;;
66927;SDS011;59882;45.624;11.698;2023-03-31T11:34:43;40.35;;;26.77;;
66927;SDS011;59882;45.624;11.698;2023-03-31T11:37:17;43.03;;;28.60;;
66927;SDS011;59882;45.624;11.698;2023-03-31T11:40:25;44.85;;;27.25;;
66927;SDS011;59882;45.624;11.698;2023-03-31T11:42:56;41.17;;;27.80;;
66927;SDS011;59882;45.624;11.698;2023-03-31T11:48:45;43.80;;;32.00;;
66927;SDS011;59882;45.624;11.698;2023-03-31T11:51:36;42.50;;;28.67;;
66927;SDS011;59882;45.624;11.698;2023-03-31T11:54:07;41.78;;;29.08;;
66927;SDS011;59882;45.624;11.698;2023-03-31T11:56:40;43.45;;;28.13;;
66927;SDS011;59882;45.624;11.698;2023-03-31T11:59:06;38.67;;;27.73;;
66927;SDS011;59882;45.624;11.698;2023-03-31T12:01:54;37.75;;;26.40;;
66927;SDS011;59882;45.624;11.698;2023-03-31T12:04:41;36.08;;;24.73;;
66927;SDS011;59882;45.624;11.698;2023-03-31T12:07:27;42.97;;;26.50;;
66927;SDS011;59882;45.624;11.698;2023-03-31T12:10:17;41.03;;;27.40;;
66927;SDS011;59882;45.624;11.698;2023-03-31T12:15:45;36.17;;;25.45;;
66927;SDS011;59882;45.624;11.698;2023-03-31T12:18:25;37.17;;;25.35;;
66927;SDS011;59882;45.624;11.698;2023-03-31T12:20:56;40.58;;;26.95;;
66927;SDS011;59882;45.624;11.698;2023-03-31T12:23:27;44.50;;;26.30;;
66927;SDS011;59882;45.624;11.698;2023-03-31T12:26:03;40.05;;;24.52;;
66927;SDS011;59882;45.624;11.698;2023-03-31T12:28:51;33.03;;;25.13;;
66927;SDS011;59882;45.624;11.698;2023-03-31T12:31:21;38.90;;;24.88;;
66927;SDS011;59882;45.624;11.698;2023-03-31T12:33:53;33.38;;;24.38;;
66927;SDS011;59882;45.624;11.698;2023-03-31T12:36:32;38.20;;;24.90;;
66927;SDS011;59882;45.624;11.698;2023-03-31T12:41:41;38.67;;;26.98;;
66927;SDS011;59882;45.624;11.698;2023-03-31T13:05:59;31.85;;;22.42;;
66927;SDS011;59882;45.624;11.698;2023-03-31T13:11:14;37.93;;;24.53;;
66927;SDS011;59882;45.624;11.698;2023-03-31T13:13:52;36.70;;;25.38;;
66927;SDS011;59882;45.624;11.698;2023-03-31T13:16:23;35.13;;;24.48;;
66927;SDS011;59882;45.624;11.698;2023-03-31T13:18:51;36.00;;;25.00;;
66927;SDS011;59882;45.624;11.698;2023-03-31T13:21:19;39.97;;;25.00;;
66927;SDS011;59882;45.624;11.698;2023-03-31T13:23:45;36.80;;;24.55;;
66927;SDS011;59882;45.624;11.698;2023-03-31T13:37:27;38.33;;;23.42;;
66927;SDS011;59882;45.624;11.698;2023-03-31T13:40:13;34.73;;;23.43;;
66927;SDS011;59882;45.624;11.698;2023-03-31T13:43:06;40.50;;;24.02;;
66927;SDS011;59882;45.624;11.698;2023-03-31T13:45:52;38.00;;;24.02;;
66927;SDS011;59882;45.624;11.698;2023-03-31T13:59:19;35.83;;;24.27;;
66927;SDS011;59882;45.624;11.698;2023-03-31T14:02:10;41.95;;;26.23;;
66927;SDS011;59882;45.624;11.698;2023-03-31T14:10:36;37.25;;;23.95;;
66927;SDS011;59882;45.624;11.698;2023-03-31T14:13:13;39.13;;;24.08;;
66927;SDS011;59882;45.624;11.698;2023-03-31T14:15:42;38.78;;;23.83;;
66927;SDS011;59882;45.624;11.698;2023-03-31T14:18:17;36.67;;;24.58;;
66927;SDS011;59882;45.624;11.698;2023-03-31T14:21:03;36.70;;;25.20;;
66927;SDS011;59882;45.624;11.698;2023-03-31T14:23:37;36.10;;;24.88;;
66927;SDS011;59882;45.624;11.698;2023-03-31T14:32:34;36.95;;;24.25;;
66927;SDS011;59882;45.624;11.698;2023-03-31T14:35:17;38.97;;;25.90;;
66927;SDS011;59882;45.624;11.698;2023-03-31T14:37:47;42.80;;;25.02;;
66927;SDS011;59882;45.624;11.698;2023-03-31T14:40:15;35.20;;;25.85;;
66927;SDS011;59882;45.624;11.698;2023-03-31T14:42:41;35.22;;;25.60;;
66927;SDS011;59882;45.624;11.698;2023-03-31T14:47:55;42.20;;;25.63;;
66927;SDS011;59882;45.624;11.698;2023-03-31T14:50:42;37.20;;;25.60;;
66927;SDS011;59882;45.624;11.698;2023-03-31T14:53:13;35.65;;;25.17;;
66927;SDS011;59882;45.624;11.698;2023-03-31T14:55:40;38.60;;;25.48;;
66927;SDS011;59882;45.624;11.698;2023-03-31T14:58:07;37.90;;;27.00;;
66927;SDS011;59882;45.624;11.698;2023-03-31T15:00:37;37.50;;;25.53;;
66927;SDS011;59882;45.624;11.698;2023-03-31T15:03:05;39.53;;;26.42;;
66927;SDS011;59882;45.624;11.698;2023-03-31T15:05:34;36.67;;;26.85;;
66927;SDS011;59882;45.624;11.698;2023-03-31T15:08:05;36.40;;;26.55;;
66927;SDS011;59882;45.624;11.698;2023-03-31T15:10:39;38.40;;;25.92;;
66927;SDS011;59882;45.624;11.698;2023-03-31T15:13:10;42.17;;;26.97;;
66927;SDS011;59882;45.624;11.698;2023-03-31T15:15:40;39.10;;;26.30;;
66927;SDS011;59882;45.624;11.698;2023-03-31T15:18:10;44.72;;;29.35;;
66927;SDS011;59882;45.624;11.698;2023-03-31T15:20:38;45.28;;;27.27;;
66927;SDS011;59882;45.624;11.698;2023-03-31T15:25:48;44.63;;;28.47;;
66927;SDS011;59882;45.624;11.698;2023-03-31T15:28:23;43.63;;;29.02;;
66927;SDS011;59882;45.624;11.698;2023-03-31T15:30:51;42.85;;;27.58;;
66927;SDS011;59882;45.624;11.698;2023-03-31T15:33:19;47.28;;;27.85;;
66927;SDS011;59882;45.624;11.698;2023-03-31T15:35:49;39.50;;;26.77;;
66927;SDS011;59882;45.624;11.698;2023-03-31T15:38:14;38.85;;;27.02;;
66927;SDS011;59882;45.624;11.698;2023-03-31T15:40:42;42.22;;;26.65;;
66927;SDS011;59882;45.624;11.698;2023-03-31T15:43:13;46.30;;;28.53;;
66927;SDS011;59882;45.624;11.698;2023-03-31T15:45:55;46.40;;;29.25;;
66927;SDS011;59882;45.624;11.698;2023-03-31T15:51:00;49.80;;;29.95;;
66927;SDS011;59882;45.624;11.698;2023-03-31T15:56:03;48.10;;;30.13;;
66927;SDS011;59882;45.624;11.698;2023-03-31T15:58:52;52.47;;;30.80;;
66927;SDS011;59882;45.624;11.698;2023-03-31T16:01:20;46.95;;;31.45;;
66927;SDS011;59882;45.624;11.698;2023-03-31T16:03:48;48.85;;;30.73;;
66927;SDS011;59882;45.624;11.698;2023-03-31T16:09:15;48.57;;;29.93;;
66927;SDS011;59882;45.624;11.698;2023-03-31T16:11:45;49.42;;;31.52;;
66927;SDS011;59882;45.624;11.698;2023-03-31T16:14:14;46.33;;;30.95;;
66927;SDS011;59882;45.624;11.698;2023-03-31T16:16:48;49.92;;;32.15;;
66927;SDS011;59882;45.624;11.698;2023-03-31T16:19:45;52.97;;;34.50;;
66927;SDS011;59882;45.624;11.698;2023-03-31T16:22:17;49.10;;;32.53;;
66927;SDS011;59882;45.624;11.698;2023-03-31T16:24:46;45.97;;;32.60;;
66927;SDS011;59882;45.624;11.698;2023-03-31T16:27:12;50.80;;;33.88;;
66927;SDS011;59882;45.624;11.698;2023-03-31T16:29:38;47.20;;;32.65;;
66927;SDS011;59882;45.624;11.698;2023-03-31T16:34:41;49.38;;;32.60;;
66927;SDS011;59882;45.624;11.698;2023-03-31T16:37:20;50.85;;;32.30;;
66927;SDS011;59882;45.624;11.698;2023-03-31T16:39:46;51.75;;;32.88;;
66927;SDS011;59882;45.624;11.698;2023-03-31T16:42:11;44.93;;;31.60;;
66927;SDS011;59882;45.624;11.698;2023-03-31T16:44:37;43.37;;;30.27;;
66927;SDS011;59882;45.624;11.698;2023-03-31T16:47:02;53.90;;;34.08;;
66927;SDS011;59882;45.624;11.698;2023-03-31T16:49:28;49.20;;;32.37;;
66927;SDS011;59882;45.624;11.698;2023-03-31T16:51:54;45.30;;;33.70;;
66927;SDS011;59882;45.624;11.698;2023-03-31T16:54:20;47.33;;;34.35;;
66927;SDS011;59882;45.624;11.698;2023-03-31T16:56:45;47.83;;;34.53;;
66927;SDS011;59882;45.624;11.698;2023-03-31T16:59:12;54.42;;;33.40;;
66927;SDS011;59882;45.624;11.698;2023-03-31T17:01:38;50.28;;;34.70;;
66927;SDS011;59882;45.624;11.698;2023-03-31T17:04:03;46.43;;;33.07;;
66927;SDS011;59882;45.624;11.698;2023-03-31T17:06:29;45.58;;;32.10;;
66927;SDS011;59882;45.624;11.698;2023-03-31T17:08:55;52.40;;;33.10;;
66927;SDS011;59882;45.624;11.698;2023-03-31T17:11:20;48.20;;;33.03;;
66927;SDS011;59882;45.624;11.698;2023-03-31T17:13:46;46.90;;;32.28;;
66927;SDS011;59882;45.624;11.698;2023-03-31T17:16:13;49.97;;;32.30;;
66927;SDS011;59882;45.624;11.698;2023-03-31T17:18:38;48.97;;;33.97;;
66927;SDS011;59882;45.624;11.698;2023-03-31T17:21:08;42.60;;;31.27;;
66927;SDS011;59882;45.624;11.698;2023-03-31T17:23:36;51.08;;;32.72;;
66927;SDS011;59882;45.624;11.698;2023-03-31T17:26:03;46.42;;;32.25;;
66927;SDS011;59882;45.624;11.698;2023-03-31T17:28:30;45.53;;;31.40;;
66927;SDS011;59882;45.624;11.698;2023-03-31T17:30:57;45.72;;;33.20;;
66927;SDS011;59882;45.624;11.698;2023-03-31T17:33:23;51.20;;;33.77;;